createdAt,value
2023-04-01T00:01:22.375Z,70.79
2023-04-01T00:03:51.947Z,70.85
2023-04-01T00:06:20.717Z,70.81
2023-04-01T00:08:49.027Z,70.64
2023-04-01T00:11:20.626Z,70.54
2023-04-01T00:13:49.285Z,70.57
2023-04-01T00:16:22.048Z,70.65
2023-04-01T00:18:51.715Z,70.76
2023-04-01T00:21:20.118Z,70.67
2023-04-01T00:23:49.571Z,70.47
2023-04-01T00:26:20.178Z,70.36
2023-04-01T00:28:49.036Z,70.25
2023-04-01T00:31:17.361Z,70.26
2023-04-01T00:33:45.913Z,70.24
2023-04-01T00:36:15.675Z,70.20
2023-04-01T00:38:46.036Z,70.27
2023-04-01T00:41:16.589Z,70.09
2023-04-01T00:43:47.930Z,69.97
2023-04-01T00:46:16.341Z,69.87
2023-04-01T00:48:50.417Z,69.84
2023-04-01T00:51:21.802Z,69.84
2023-04-01T00:53:53.610Z,69.89
2023-04-01T00:56:43.040Z,69.80
2023-04-01T00:59:14.451Z,69.56
2023-04-01T01:01:43.040Z,69.33
2023-04-01T01:04:26.779Z,69.28
2023-04-01T01:07:10.219Z,69.26
2023-04-01T01:09:55.508Z,69.28
2023-04-01T01:12:54.151Z,69.30
2023-04-01T01:15:37.711Z,69.11
2023-04-01T01:18:24.436Z,68.99
2023-04-01T01:21:21.862Z,68.90
2023-04-01T01:24:08.273Z,68.94
2023-04-01T01:26:55.298Z,68.80
2023-04-01T01:29:35.851Z,68.54
2023-04-01T01:32:22.661Z,68.53
2023-04-01T01:35:21.658Z,68.54
2023-04-01T01:37:53.537Z,68.48
2023-04-01T01:40:22.616Z,68.61
2023-04-01T01:42:53.286Z,68.73
2023-04-01T01:45:22.863Z,68.80
2023-04-01T01:47:51.566Z,68.89
2023-04-01T01:50:20.783Z,68.93
2023-04-01T01:52:48.931Z,68.87
2023-04-01T01:55:38.998Z,68.86
2023-04-01T01:58:41.500Z,69.00
2023-04-01T02:01:33.246Z,69.01
2023-04-01T02:04:09.093Z,69.27
2023-04-01T02:06:40.585Z,69.25
2023-04-01T02:09:11.712Z,69.17
2023-04-01T02:11:45.263Z,69.10
2023-04-01T02:14:26.130Z,69.01
2023-04-01T02:17:01.588Z,69.05
2023-04-01T02:19:39.958Z,69.25
2023-04-01T02:22:11.749Z,69.32
2023-04-01T02:24:40.050Z,69.32
2023-04-01T02:27:11.065Z,69.24
2023-04-01T02:29:41.518Z,69.06
2023-04-01T02:32:09.985Z,69.00
2023-04-01T02:34:39.095Z,68.89
2023-04-01T02:37:07.247Z,68.98
2023-04-01T02:39:36.239Z,68.93
2023-04-01T02:42:04.517Z,68.78
2023-04-01T02:44:33.610Z,68.49
2023-04-01T02:47:02.139Z,68.43
2023-04-01T02:49:30.896Z,68.40
2023-04-01T02:51:59.531Z,68.43
2023-04-01T02:54:28.058Z,68.38
2023-04-01T02:56:56.678Z,68.24
2023-04-01T02:59:25.325Z,68.25
2023-04-01T03:01:53.442Z,68.21
2023-04-01T03:04:21.794Z,68.26
2023-04-01T03:06:51.080Z,68.15
2023-04-01T03:09:19.766Z,68.22
2023-04-01T03:11:48.009Z,68.35
2023-04-01T03:14:17.346Z,68.47
2023-04-01T03:16:46.360Z,68.47
2023-04-01T03:19:14.924Z,68.47
2023-04-01T03:21:43.469Z,68.39
2023-04-01T03:24:12.086Z,68.46
2023-04-01T03:26:44.147Z,68.56
2023-04-01T03:29:12.734Z,68.54
2023-04-01T03:31:40.774Z,68.59
2023-04-01T03:34:10.209Z,68.54
2023-04-01T03:36:38.405Z,68.45
2023-04-01T03:39:13.263Z,68.45
2023-04-01T03:41:42.521Z,68.41
2023-04-01T03:44:10.847Z,68.51
2023-04-01T03:46:40.487Z,68.55
2023-04-01T03:49:12.967Z,68.71
2023-04-01T03:51:45.003Z,68.82
2023-04-01T03:54:13.331Z,68.82
2023-04-01T03:56:41.904Z,68.77
2023-04-01T03:59:12.759Z,68.68
2023-04-01T04:01:41.329Z,68.83
2023-04-01T04:04:14.394Z,68.88
2023-04-01T04:06:45.979Z,69.01
2023-04-01T04:09:14.965Z,69.12
2023-04-01T04:11:43.176Z,69.07
2023-04-01T04:14:12.339Z,69.05
2023-04-01T04:16:41.537Z,69.07
2023-04-01T04:19:10.531Z,69.08
2023-04-01T04:21:38.605Z,69.14
2023-04-01T04:24:07.606Z,69.19
2023-04-01T04:26:56.566Z,69.09
2023-04-01T04:29:24.852Z,68.99
2023-04-01T04:31:53.295Z,68.96
2023-04-01T04:34:23.656Z,69.05
2023-04-01T04:36:52.027Z,69.12
2023-04-01T04:39:20.604Z,69.17
2023-04-01T04:41:50.525Z,69.24
2023-04-01T04:44:20.646Z,69.21
2023-04-01T04:46:49.171Z,69.24
2023-04-01T04:49:18.321Z,69.31
2023-04-01T04:51:47.463Z,69.27
2023-04-01T04:54:16.516Z,69.20
2023-04-01T04:56:54.692Z,69.16
2023-04-01T04:59:26.480Z,68.94
2023-04-01T05:02:07.595Z,68.71
2023-04-01T05:04:37.855Z,68.73
2023-04-01T05:07:08.396Z,68.80
2023-04-01T05:09:40.068Z,68.69
2023-04-01T05:12:08.775Z,68.78
2023-04-01T05:14:55.083Z,68.84
2023-04-01T05:17:24.084Z,68.77
2023-04-01T05:19:53.887Z,68.73
2023-04-01T05:22:22.676Z,68.70
2023-04-01T05:24:51.147Z,68.64
2023-04-01T05:27:19.815Z,68.61
2023-04-01T05:29:54.361Z,68.67
2023-04-01T05:32:38.706Z,68.50
2023-04-01T05:35:08.301Z,68.52
2023-04-01T05:37:36.579Z,68.38
2023-04-01T05:40:07.034Z,68.20
2023-04-01T05:42:36.931Z,67.94
2023-04-01T05:45:07.769Z,67.76
2023-04-01T05:48:00.756Z,67.80
2023-04-01T05:50:30.950Z,67.61
2023-04-01T05:52:59.127Z,67.55
2023-04-01T05:55:27.708Z,67.57
2023-04-01T05:57:56.489Z,67.55
2023-04-01T06:00:24.868Z,67.64
2023-04-01T06:02:54.943Z,67.38
2023-04-01T06:05:30.262Z,67.12
2023-04-01T06:08:02.494Z,66.82
2023-04-01T06:10:53.228Z,66.69
2023-04-01T06:13:28.743Z,66.56
2023-04-01T06:16:28.522Z,66.44
2023-04-01T06:19:00.637Z,66.37
2023-04-01T06:21:51.210Z,66.40
2023-04-01T06:24:27.803Z,66.08
2023-04-01T06:27:20.846Z,65.65
2023-04-01T06:30:08.338Z,65.83
2023-04-01T06:32:58.865Z,66.05
2023-04-01T06:35:51.408Z,66.08
2023-04-01T06:38:28.279Z,65.88
2023-04-01T06:41:24.244Z,65.84
2023-04-01T06:44:27.583Z,65.47
2023-04-01T06:47:50.254Z,65.58
2023-04-01T06:50:58.446Z,65.05
2023-04-01T06:53:55.145Z,64.61
2023-04-01T06:56:44.006Z,64.20
2023-04-01T06:59:23.851Z,63.95
2023-04-01T07:01:54.790Z,63.63
2023-04-01T07:04:27.147Z,63.49
2023-04-01T07:07:04.858Z,63.34
2023-04-01T07:09:41.802Z,62.92
2023-04-01T07:12:44.312Z,63.17
2023-04-01T07:16:10.251Z,63.34
2023-04-01T07:18:54.254Z,62.91
2023-04-01T07:21:33.760Z,62.40
2023-04-01T07:24:10.237Z,61.95
2023-04-01T07:26:43.976Z,61.77
2023-04-01T07:29:16.561Z,61.68
2023-04-01T07:32:05.851Z,61.36
2023-04-01T07:34:44.573Z,60.85
2023-04-01T07:37:14.918Z,60.62
2023-04-01T07:40:05.706Z,60.60
2023-04-01T07:42:45.763Z,59.92
2023-04-01T07:45:46.431Z,59.36
2023-04-01T07:48:40.729Z,59.30
2023-04-01T07:51:27.500Z,59.22
2023-04-01T07:53:59.782Z,59.10
2023-04-01T07:57:01.805Z,58.98
2023-04-01T08:00:12.689Z,58.11
2023-04-01T08:02:54.157Z,58.08
2023-04-01T08:05:32.168Z,58.25
2023-04-01T08:08:02.939Z,58.32
2023-04-01T08:11:04.096Z,57.83
2023-04-01T08:14:12.604Z,57.72
2023-04-01T08:17:04.128Z,57.67
2023-04-01T08:20:07.424Z,57.52
2023-04-01T08:22:43.072Z,57.11
2023-04-01T08:25:25.992Z,56.16
2023-04-01T08:28:05.751Z,56.26
2023-04-01T08:30:43.149Z,56.52
2023-04-01T08:33:21.029Z,56.59
2023-04-01T08:36:05.013Z,56.77
2023-04-01T08:38:44.010Z,56.85
2023-04-01T08:41:40.812Z,56.94
2023-04-01T08:44:39.745Z,56.92
2023-04-01T08:47:39.372Z,57.06
2023-04-01T08:50:29.752Z,57.21
2023-04-01T08:53:33.581Z,57.20
2023-04-01T08:56:22.009Z,57.30
2023-04-01T08:59:13.882Z,57.00
2023-04-01T09:02:05.980Z,56.73
2023-04-01T09:05:23.336Z,56.80
2023-04-01T09:08:17.306Z,56.73
2023-04-01T09:10:51.913Z,56.58
2023-04-01T09:14:28.897Z,56.67
2023-04-01T09:17:20.574Z,56.68
2023-04-01T09:20:18.856Z,56.71
2023-04-01T09:23:02.651Z,57.21
2023-04-01T09:25:53.340Z,57.38
2023-04-01T09:28:39.864Z,56.90
2023-04-01T09:31:21.796Z,56.91
2023-04-01T09:34:36.732Z,56.25
2023-04-01T09:37:19.091Z,56.13
2023-04-01T09:40:16.930Z,55.85
2023-04-01T09:43:15.605Z,55.80
2023-04-01T09:45:53.532Z,55.40
2023-04-01T09:48:31.972Z,54.41
2023-04-01T09:51:31.941Z,53.13
2023-04-01T09:54:28.580Z,53.65
2023-04-01T09:57:20.574Z,54.22
2023-04-01T10:00:14.184Z,53.05
2023-04-01T10:03:12.606Z,53.10
2023-04-01T10:06:05.364Z,53.33
2023-04-01T10:08:59.083Z,52.92
2023-04-01T10:11:45.898Z,52.64
2023-04-01T10:14:28.565Z,52.01
2023-04-01T10:17:23.398Z,52.16
2023-04-01T10:20:27.937Z,52.13
2023-04-01T10:23:16.436Z,52.14
2023-04-01T10:26:17.022Z,52.23
2023-04-01T10:28:49.296Z,52.46
2023-04-01T10:32:18.456Z,52.58
2023-04-01T10:34:57.627Z,52.35
2023-04-01T10:37:54.280Z,51.83
2023-04-01T10:40:31.881Z,51.26
2023-04-01T10:43:43.375Z,51.73
2023-04-01T10:46:22.999Z,52.10
2023-04-01T10:49:03.200Z,52.13
2023-04-01T10:51:47.198Z,51.94
2023-04-01T10:54:55.545Z,51.71
2023-04-01T10:58:09.754Z,51.45
2023-04-01T11:01:11.141Z,51.26
2023-04-01T11:04:53.335Z,51.01
2023-04-01T11:08:04.933Z,50.53
2023-04-01T11:22:32.265Z,48.98
2023-04-01T11:25:35.627Z,47.40
2023-04-01T11:28:42.894Z,47.54
2023-04-01T11:31:21.295Z,47.82
2023-04-01T11:34:04.294Z,48.10
2023-04-01T11:36:53.596Z,48.14
2023-04-01T11:39:54.799Z,48.75
2023-04-01T11:43:32.426Z,48.72
2023-04-01T11:47:02.572Z,47.43
2023-04-01T11:49:38.193Z,47.16
2023-04-01T11:52:37.095Z,46.40
2023-04-01T11:55:36.503Z,46.08
2023-04-01T11:58:13.678Z,45.70
2023-04-01T12:01:13.916Z,46.00
2023-04-01T12:03:42.610Z,45.79
2023-04-01T12:06:46.609Z,45.90
2023-04-01T12:09:26.644Z,45.31
2023-04-01T12:12:24.906Z,45.18
2023-04-01T12:15:22.197Z,44.97
2023-04-01T12:18:16.797Z,44.50
2023-04-01T12:20:56.965Z,44.60
2023-04-01T12:23:44.473Z,44.38
2023-04-01T12:26:44.393Z,44.30
2023-04-01T12:29:15.447Z,44.37
2023-04-01T12:32:02.194Z,44.79
2023-04-01T12:34:54.107Z,44.61
2023-04-01T12:38:15.709Z,44.50
2023-04-01T12:40:48.287Z,43.92
2023-04-01T12:43:27.574Z,44.12
2023-04-01T12:46:30.245Z,43.96
2023-04-01T12:49:04.830Z,43.81
2023-04-01T12:51:50.200Z,44.04
2023-04-01T12:54:40.601Z,44.49
2023-04-01T12:57:31.226Z,44.61
2023-04-01T13:00:24.564Z,44.37
2023-04-01T13:03:15.879Z,44.31
2023-04-01T13:05:44.371Z,44.30
2023-04-01T13:08:34.262Z,43.80
2023-04-01T13:11:22.031Z,43.19
2023-04-01T13:14:24.988Z,43.24
2023-04-01T13:17:02.207Z,43.51
2023-04-01T13:19:44.754Z,43.65
2023-04-01T13:22:19.400Z,43.88
2023-04-01T13:24:54.387Z,44.18
2023-04-01T13:27:22.607Z,44.66
2023-04-01T13:30:15.255Z,44.77
2023-04-01T13:33:02.737Z,44.81
2023-04-01T13:35:46.617Z,44.34
2023-04-01T13:38:24.624Z,44.46
2023-04-01T13:41:03.029Z,44.23
2023-04-01T13:43:54.159Z,44.42
2023-04-01T13:46:51.384Z,44.95
2023-04-01T13:49:48.154Z,44.98
2023-04-01T13:52:25.604Z,45.28
2023-04-01T13:55:14.146Z,45.67
2023-04-01T13:57:58.859Z,45.82
2023-04-01T14:00:44.286Z,46.14
2023-04-01T14:03:50.596Z,46.17
2023-04-01T14:06:44.184Z,46.36
2023-04-01T14:09:27.712Z,46.69
2023-04-01T14:12:10.782Z,46.82
2023-04-01T14:14:54.691Z,46.95
2023-04-01T14:17:31.462Z,47.04
2023-04-01T14:20:49.316Z,47.13
2023-04-01T14:23:25.681Z,47.29
2023-04-01T14:26:02.990Z,47.47
2023-04-01T14:28:47.713Z,47.41
2023-04-01T14:31:31.984Z,47.51
2023-04-01T14:34:06.901Z,47.63
2023-04-01T14:36:43.071Z,47.93
2023-04-01T14:39:42.673Z,48.33
2023-04-01T14:42:29.134Z,48.69
2023-04-01T14:45:39.736Z,48.83
2023-04-01T14:48:25.484Z,48.84
2023-04-01T14:50:55.807Z,49.19
2023-04-01T14:53:27.253Z,49.26
2023-04-01T14:55:59.904Z,49.40
2023-04-01T14:58:47.210Z,49.41
2023-04-01T15:01:34.271Z,49.41
2023-04-01T15:04:12.227Z,49.57
2023-04-01T15:07:03.562Z,49.59
2023-04-01T15:09:40.087Z,49.71
2023-04-01T15:12:24.767Z,50.06
2023-04-01T15:15:57.836Z,49.97
2023-04-01T15:19:01.866Z,49.90
2023-04-01T15:21:41.029Z,50.16
2023-04-01T15:24:18.867Z,50.75
2023-04-01T15:27:13.360Z,51.46
2023-04-01T15:29:49.167Z,52.27
2023-04-01T15:32:38.764Z,53.17
2023-04-01T15:35:15.842Z,53.69
2023-04-01T15:38:43.914Z,54.11
2023-04-01T15:41:30.217Z,54.34
2023-04-01T15:43:58.911Z,54.11
2023-04-01T15:46:44.582Z,54.21
2023-04-01T15:49:32.423Z,54.36
2023-04-01T15:52:36.032Z,54.77
2023-04-01T15:55:27.068Z,54.79
2023-04-01T15:58:05.817Z,55.28
2023-04-01T16:01:08.483Z,55.58
2023-04-01T16:04:09.049Z,55.59
2023-04-01T16:07:16.773Z,55.85
2023-04-01T16:09:51.517Z,56.00
2023-04-01T16:12:43.953Z,56.03
2023-04-01T16:15:30.716Z,56.24
2023-04-01T16:18:05.784Z,56.47
2023-04-01T16:20:57.112Z,56.69
2023-04-01T16:26:14.265Z,56.94
2023-04-01T16:29:24.935Z,57.23
2023-04-01T16:32:33.463Z,57.46
2023-04-01T16:35:40.695Z,57.63
2023-04-01T16:38:33.784Z,57.73
2023-04-01T16:41:06.157Z,57.64
2023-04-01T16:43:47.478Z,57.72
2023-04-01T16:46:32.975Z,58.07
2023-04-01T16:49:06.738Z,58.45
2023-04-01T16:51:48.932Z,58.73
2023-04-01T16:54:31.292Z,59.27
2023-04-01T16:57:11.359Z,59.75
2023-04-01T17:00:00.171Z,60.24
2023-04-01T17:02:32.392Z,60.55
2023-04-01T17:05:10.641Z,60.87
2023-04-01T17:08:03.505Z,61.09
2023-04-01T17:10:54.993Z,61.55
2023-04-01T17:13:37.210Z,61.87
2023-04-01T17:16:13.492Z,61.95
2023-04-01T17:18:44.320Z,62.18
2023-04-01T17:21:19.029Z,62.45
2023-04-01T17:24:17.253Z,62.74
2023-04-01T17:27:01.531Z,62.86
2023-04-01T17:29:47.898Z,62.77
2023-04-01T17:32:28.839Z,62.74
2023-04-01T17:35:10.749Z,62.86
2023-04-01T17:37:55.572Z,62.89
2023-04-01T17:40:32.434Z,63.02
2023-04-01T17:43:14.562Z,63.18
2023-04-01T17:45:50.671Z,63.27
2023-04-01T17:48:35.003Z,63.50
2023-04-01T17:51:16.436Z,63.67
2023-04-01T17:53:56.750Z,63.81
2023-04-01T17:56:35.595Z,64.04
2023-04-01T17:59:20.239Z,64.10
2023-04-01T18:02:25.183Z,64.18
2023-04-01T18:05:12.290Z,64.38
2023-04-01T18:08:18.975Z,64.47
2023-04-01T18:11:06.092Z,64.51
2023-04-01T18:13:34.872Z,64.55
2023-04-01T18:16:31.570Z,64.65
2023-04-01T18:19:16.727Z,64.81
2023-04-01T18:21:48.862Z,65.09
2023-04-01T18:24:20.617Z,65.35
2023-04-01T18:27:11.033Z,65.62
2023-04-01T18:29:51.747Z,65.74
2023-04-01T18:32:44.248Z,65.97
2023-04-01T18:35:51.952Z,66.07
2023-04-01T18:38:36.607Z,66.14
2023-04-01T18:41:27.359Z,66.14
2023-04-01T18:44:24.025Z,66.07
2023-04-01T18:47:16.297Z,66.06
2023-04-01T18:50:03.215Z,66.21
2023-04-01T18:52:37.305Z,66.18
2023-04-01T18:55:05.847Z,66.27
2023-04-01T18:57:51.770Z,66.27
2023-04-01T19:00:23.687Z,66.46
2023-04-01T19:03:27.331Z,66.43
2023-04-01T19:05:55.931Z,66.52
2023-04-01T19:08:29.568Z,66.47
2023-04-01T19:11:11.933Z,66.48
2023-04-01T19:14:03.763Z,66.42
2023-04-01T19:16:32.191Z,66.49
2023-04-01T19:19:11.887Z,66.69
2023-04-01T19:21:48.022Z,66.64
2023-04-01T19:24:42.403Z,66.61
2023-04-01T19:27:39.592Z,66.68
2023-04-01T19:30:19.907Z,66.79
2023-04-01T19:32:59.345Z,66.71
2023-04-01T19:36:14.912Z,66.81
2023-04-01T19:38:54.937Z,67.02
2023-04-01T19:41:42.072Z,67.18
2023-04-01T19:44:42.377Z,67.14
2023-04-01T19:47:21.373Z,67.36
2023-04-01T19:50:05.156Z,67.18
2023-04-01T19:52:42.950Z,67.07
2023-04-01T19:55:38.686Z,67.26
2023-04-01T19:58:21.951Z,67.30
2023-04-01T20:00:53.245Z,67.30
2023-04-01T20:03:40.995Z,67.40
2023-04-01T20:06:17.920Z,67.44
2023-04-01T20:08:57.092Z,67.48
2023-04-01T20:11:34.583Z,67.34
2023-04-01T20:14:11.462Z,67.35
2023-04-01T20:16:42.348Z,67.35
2023-04-01T20:19:12.955Z,67.51
2023-04-01T20:21:47.049Z,67.52
2023-04-01T20:24:15.055Z,67.75
2023-04-01T20:26:47.084Z,67.70
2023-04-01T20:29:53.551Z,67.42
2023-04-01T20:32:40.492Z,67.40
2023-04-01T20:35:22.440Z,67.42
2023-04-01T20:38:13.373Z,67.39
2023-04-01T20:40:49.970Z,67.51
2023-04-01T20:43:21.500Z,67.54
2023-04-01T20:45:52.376Z,67.58
2023-04-01T20:48:20.714Z,67.73
2023-04-01T20:50:50.755Z,67.93
2023-04-01T20:53:27.926Z,67.97
2023-04-01T20:56:14.441Z,68.05
2023-04-01T20:58:42.375Z,68.14
2023-04-01T21:01:21.161Z,68.26
2023-04-01T21:03:50.932Z,68.32
2023-04-01T21:06:44.099Z,68.26
2023-04-01T21:09:31.411Z,68.09
2023-04-01T21:12:13.207Z,67.92
2023-04-01T21:14:47.756Z,67.93
2023-04-01T21:17:36.630Z,67.93
2023-04-01T21:20:05.688Z,68.05
2023-04-01T21:22:56.224Z,67.99
2023-04-01T21:25:27.081Z,67.97
2023-04-01T21:27:58.483Z,68.05
2023-04-01T21:30:45.584Z,68.02
2023-04-01T21:33:31.603Z,67.80
2023-04-01T21:36:11.629Z,67.62
2023-04-01T21:38:59.678Z,67.65
2023-04-01T21:41:46.228Z,67.76
2023-04-01T21:44:29.205Z,67.97
2023-04-01T21:47:21.660Z,68.03
2023-04-01T21:50:24.242Z,67.93
2023-04-01T21:52:58.365Z,67.72
2023-04-01T21:55:54.878Z,67.64
2023-04-01T21:58:44.658Z,67.68
2023-04-01T22:01:37.877Z,67.69
2023-04-01T22:04:40.916Z,67.56
2023-04-01T22:07:47.795Z,67.41
2023-04-01T22:10:29.178Z,67.43
2023-04-01T22:13:18.155Z,67.47
2023-04-01T22:15:58.546Z,67.70
2023-04-01T22:18:45.414Z,67.68
2023-04-01T22:21:17.463Z,67.86
2023-04-01T22:23:49.345Z,67.86
2023-04-01T22:26:39.747Z,67.92
2023-04-01T22:29:26.094Z,68.10
2023-04-01T22:32:07.906Z,68.16
2023-04-01T22:34:44.233Z,68.24
2023-04-01T22:37:30.649Z,68.28
2023-04-01T22:40:28.267Z,68.24
2023-04-01T22:43:05.152Z,68.35
2023-04-01T22:45:55.062Z,68.39
2023-04-01T22:48:44.954Z,68.42
2023-04-01T22:51:26.095Z,68.49
2023-04-01T22:54:23.560Z,68.54
2023-04-01T22:57:09.052Z,68.51
2023-04-01T23:00:09.771Z,68.52
2023-04-01T23:02:47.077Z,68.40
2023-04-01T23:05:18.650Z,68.38
2023-04-01T23:08:05.532Z,68.48
2023-04-01T23:10:41.381Z,68.50
2023-04-01T23:13:21.766Z,68.44
2023-04-01T23:15:50.132Z,68.54
2023-04-01T23:18:37.865Z,68.58
2023-04-01T23:21:12.277Z,68.42
2023-04-01T23:23:43.426Z,68.30
2023-04-01T23:29:17.667Z,69.23
2023-04-01T23:32:06.147Z,68.84
2023-04-01T23:34:36.039Z,68.88
2023-04-01T23:37:14.534Z,68.89
2023-04-01T23:39:45.072Z,68.82
2023-04-01T23:42:27.233Z,68.79
2023-04-01T23:45:03.842Z,68.70
2023-04-01T23:47:37.465Z,68.81
2023-04-01T23:50:12.282Z,68.73
2023-04-01T23:52:47.231Z,68.80
2023-04-01T23:55:19.336Z,68.72
2023-04-01T23:58:06.828Z,68.79
